sensor_id;sensor_type;location;lat;lon;timestamp;pressure;altitude;pressure_sealevel;temperature;humidity
64841;BME280;51307;52.162;7.560;2023-12-14T00:01:14;100297.41;;;6.76;82.32
64841;BME280;51307;52.162;7.560;2023-12-14T00:03:40;100297.00;;;6.70;81.91
64841;BME280;51307;52.162;7.560;2023-12-14T00:06:09;100298.69;;;6.71;82.18
64841;BME280;51307;52.162;7.560;2023-12-14T00:08:34;100299.69;;;6.70;82.15
64841;BME280;51307;52.162;7.560;2023-12-14T00:11:07;100306.28;;;6.66;82.28
64841;BME280;51307;52.162;7.560;2023-12-14T00:13:33;100312.00;;;6.62;82.37
64841;BME280;51307;52.162;7.560;2023-12-14T00:16:00;100306.69;;;6.71;81.78
64841;BME280;51307;52.162;7.560;2023-12-14T00:18:25;100315.94;;;6.57;81.99
64841;BME280;51307;52.162;7.560;2023-12-14T00:20:51;100322.13;;;6.58;81.83
64841;BME280;51307;52.162;7.560;2023-12-14T00:23:18;100327.66;;;6.74;82.07
64841;BME280;51307;52.162;7.560;2023-12-14T00:25:43;100326.47;;;6.49;82.52
64841;BME280;51307;52.162;7.560;2023-12-14T00:28:09;100329.59;;;6.45;82.84
64841;BME280;51307;52.162;7.560;2023-12-14T00:30:34;100342.63;;;6.28;83.38
64841;BME280;51307;52.162;7.560;2023-12-14T00:33:00;100343.88;;;6.34;83.49
64841;BME280;51307;52.162;7.560;2023-12-14T00:35:25;100345.69;;;6.33;83.36
64841;BME280;51307;52.162;7.560;2023-12-14T00:37:51;100344.94;;;6.51;83.76
64841;BME280;51307;52.162;7.560;2023-12-14T00:40:16;100352.34;;;6.57;83.13
64841;BME280;51307;52.162;7.560;2023-12-14T00:42:42;100344.31;;;6.67;82.86
64841;BME280;51307;52.162;7.560;2023-12-14T00:45:08;100356.16;;;6.45;82.62
64841;BME280;51307;52.162;7.560;2023-12-14T00:47:33;100354.03;;;6.48;83.15
64841;BME280;51307;52.162;7.560;2023-12-14T00:49:59;100359.63;;;6.45;82.87
64841;BME280;51307;52.162;7.560;2023-12-14T00:52:24;100368.06;;;6.40;83.71
64841;BME280;51307;52.162;7.560;2023-12-14T00:54:50;100379.84;;;6.28;84.07
64841;BME280;51307;52.162;7.560;2023-12-14T00:57:15;100392.13;;;6.29;83.45
64841;BME280;51307;52.162;7.560;2023-12-14T00:59:41;100391.69;;;6.44;83.11
64841;BME280;51307;52.162;7.560;2023-12-14T01:02:06;100400.22;;;6.37;83.29
64841;BME280;51307;52.162;7.560;2023-12-14T01:04:32;100412.84;;;6.26;83.33
64841;BME280;51307;52.162;7.560;2023-12-14T01:06:57;100415.34;;;6.27;83.43
64841;BME280;51307;52.162;7.560;2023-12-14T01:09:23;100427.66;;;6.28;82.48
64841;BME280;51307;52.162;7.560;2023-12-14T01:11:49;100433.50;;;6.32;82.88
64841;BME280;51307;52.162;7.560;2023-12-14T01:14:14;100438.56;;;6.25;82.11
64841;BME280;51307;52.162;7.560;2023-12-14T01:16:40;100449.19;;;6.25;81.95
64841;BME280;51307;52.162;7.560;2023-12-14T01:19:05;100444.44;;;5.99;82.72
64841;BME280;51307;52.162;7.560;2023-12-14T01:21:31;100449.47;;;6.32;80.97
64841;BME280;51307;52.162;7.560;2023-12-14T01:23:57;100453.94;;;6.12;82.37
64841;BME280;51307;52.162;7.560;2023-12-14T01:26:22;100458.00;;;6.06;82.25
64841;BME280;51307;52.162;7.560;2023-12-14T01:28:48;100459.66;;;6.17;82.33
64841;BME280;51307;52.162;7.560;2023-12-14T01:31:13;100454.38;;;6.36;81.14
64841;BME280;51307;52.162;7.560;2023-12-14T01:33:39;100466.25;;;6.13;80.83
64841;BME280;51307;52.162;7.560;2023-12-14T01:36:04;100465.13;;;6.45;79.73
64841;BME280;51307;52.162;7.560;2023-12-14T01:38:30;100473.53;;;6.11;81.01
64841;BME280;51307;52.162;7.560;2023-12-14T01:40:55;100484.44;;;6.27;80.36
64841;BME280;51307;52.162;7.560;2023-12-14T01:43:21;100477.13;;;6.29;80.24
64841;BME280;51307;52.162;7.560;2023-12-14T01:45:47;100473.50;;;6.30;80.77
64841;BME280;51307;52.162;7.560;2023-12-14T01:48:12;100478.69;;;6.32;80.39
64841;BME280;51307;52.162;7.560;2023-12-14T01:50:38;100481.50;;;6.20;81.29
64841;BME280;51307;52.162;7.560;2023-12-14T01:53:04;100486.09;;;6.38;79.65
64841;BME280;51307;52.162;7.560;2023-12-14T01:55:29;100490.84;;;6.24;80.11
64841;BME280;51307;52.162;7.560;2023-12-14T01:57:55;100505.81;;;6.16;81.31
64841;BME280;51307;52.162;7.560;2023-12-14T02:03:12;100513.47;;;6.09;81.26
64841;BME280;51307;52.162;7.560;2023-12-14T02:05:37;100517.72;;;6.21;80.03
64841;BME280;51307;52.162;7.560;2023-12-14T02:08:03;100516.84;;;6.01;80.35
64841;BME280;51307;52.162;7.560;2023-12-14T02:10:28;100529.03;;;6.14;80.11
64841;BME280;51307;52.162;7.560;2023-12-14T02:12:54;100533.38;;;6.34;79.59
64841;BME280;51307;52.162;7.560;2023-12-14T02:15:19;100541.88;;;6.09;80.12
64841;BME280;51307;52.162;7.560;2023-12-14T02:17:45;100542.03;;;6.17;80.22
64841;BME280;51307;52.162;7.560;2023-12-14T02:20:11;100546.94;;;6.41;79.52
64841;BME280;51307;52.162;7.560;2023-12-14T02:22:53;100552.66;;;6.17;79.39
64841;BME280;51307;52.162;7.560;2023-12-14T02:25:20;100556.56;;;6.13;79.77
64841;BME280;51307;52.162;7.560;2023-12-14T02:27:47;100558.34;;;6.02;79.70
64841;BME280;51307;52.162;7.560;2023-12-14T02:30:13;100557.44;;;6.33;78.44
64841;BME280;51307;52.162;7.560;2023-12-14T02:32:39;100563.56;;;6.04;80.06
64841;BME280;51307;52.162;7.560;2023-12-14T02:35:06;100567.34;;;6.21;78.37
64841;BME280;51307;52.162;7.560;2023-12-14T02:37:33;100569.25;;;6.09;78.21
64841;BME280;51307;52.162;7.560;2023-12-14T02:39:59;100570.81;;;6.12;78.97
64841;BME280;51307;52.162;7.560;2023-12-14T02:42:26;100574.78;;;6.27;78.20
64841;BME280;51307;52.162;7.560;2023-12-14T02:44:53;100572.75;;;6.00;78.52
64841;BME280;51307;52.162;7.560;2023-12-14T02:47:18;100571.25;;;6.07;78.03
64841;BME280;51307;52.162;7.560;2023-12-14T02:49:44;100580.75;;;6.10;78.25
64841;BME280;51307;52.162;7.560;2023-12-14T02:52:09;100580.03;;;5.98;78.26
64841;BME280;51307;52.162;7.560;2023-12-14T02:54:38;100577.34;;;5.98;78.25
64841;BME280;51307;52.162;7.560;2023-12-14T02:57:04;100584.38;;;6.18;77.24
64841;BME280;51307;52.162;7.560;2023-12-14T02:59:29;100583.56;;;6.08;77.87
64841;BME280;51307;52.162;7.560;2023-12-14T03:01:55;100577.66;;;6.04;77.83
64841;BME280;51307;52.162;7.560;2023-12-14T03:04:20;100579.47;;;6.04;78.28
64841;BME280;51307;52.162;7.560;2023-12-14T03:06:46;100582.81;;;5.96;78.37
64841;BME280;51307;52.162;7.560;2023-12-14T03:09:11;100584.19;;;5.90;77.93
64841;BME280;51307;52.162;7.560;2023-12-14T03:11:37;100584.94;;;6.12;77.58
64841;BME280;51307;52.162;7.560;2023-12-14T03:14:03;100584.91;;;6.02;78.31
64841;BME280;51307;52.162;7.560;2023-12-14T03:16:28;100590.09;;;6.04;77.20
64841;BME280;51307;52.162;7.560;2023-12-14T03:18:54;100594.28;;;6.06;77.44
64841;BME280;51307;52.162;7.560;2023-12-14T03:21:20;100609.50;;;5.95;77.31
64841;BME280;51307;52.162;7.560;2023-12-14T03:23:46;100615.44;;;5.77;77.71
64841;BME280;51307;52.162;7.560;2023-12-14T03:26:11;100621.91;;;5.84;78.32
64841;BME280;51307;52.162;7.560;2023-12-14T03:28:37;100620.38;;;5.92;77.71
64841;BME280;51307;52.162;7.560;2023-12-14T03:31:03;100622.72;;;5.85;77.96
64841;BME280;51307;52.162;7.560;2023-12-14T03:33:28;100637.09;;;5.82;78.13
64841;BME280;51307;52.162;7.560;2023-12-14T03:35:54;100632.72;;;6.02;76.83
64841;BME280;51307;52.162;7.560;2023-12-14T03:38:20;100636.63;;;5.98;76.65
64841;BME280;51307;52.162;7.560;2023-12-14T03:40:45;100636.44;;;5.90;77.67
64841;BME280;51307;52.162;7.560;2023-12-14T03:43:11;100641.28;;;6.16;76.85
64841;BME280;51307;52.162;7.560;2023-12-14T03:45:36;100644.88;;;6.05;76.87
64841;BME280;51307;52.162;7.560;2023-12-14T03:48:02;100657.72;;;6.00;77.23
64841;BME280;51307;52.162;7.560;2023-12-14T03:50:27;100660.34;;;5.90;77.45
64841;BME280;51307;52.162;7.560;2023-12-14T03:52:54;100659.53;;;5.89;77.65
64841;BME280;51307;52.162;7.560;2023-12-14T03:55:19;100666.69;;;5.99;77.81
64841;BME280;51307;52.162;7.560;2023-12-14T03:57:45;100665.59;;;6.01;77.50
64841;BME280;51307;52.162;7.560;2023-12-14T04:00:13;100676.38;;;5.79;78.45
64841;BME280;51307;52.162;7.560;2023-12-14T04:02:40;100681.03;;;5.86;78.12
64841;BME280;51307;52.162;7.560;2023-12-14T04:05:09;100690.66;;;5.87;78.40
64841;BME280;51307;52.162;7.560;2023-12-14T04:07:39;100696.28;;;5.94;78.38
64841;BME280;51307;52.162;7.560;2023-12-14T04:10:12;100691.13;;;5.93;78.45
64841;BME280;51307;52.162;7.560;2023-12-14T04:12:38;100703.25;;;5.85;78.23
64841;BME280;51307;52.162;7.560;2023-12-14T04:15:06;100704.97;;;5.96;77.55
64841;BME280;51307;52.162;7.560;2023-12-14T04:17:33;100719.69;;;6.00;77.21
64841;BME280;51307;52.162;7.560;2023-12-14T04:19:59;100717.28;;;5.97;77.39
64841;BME280;51307;52.162;7.560;2023-12-14T04:22:26;100724.50;;;5.85;77.29
64841;BME280;51307;52.162;7.560;2023-12-14T04:24:51;100721.56;;;5.88;78.20
64841;BME280;51307;52.162;7.560;2023-12-14T04:27:17;100727.00;;;5.87;78.20
64841;BME280;51307;52.162;7.560;2023-12-14T04:29:43;100730.63;;;5.86;78.21
64841;BME280;51307;52.162;7.560;2023-12-14T04:32:09;100734.25;;;5.85;78.49
64841;BME280;51307;52.162;7.560;2023-12-14T04:34:34;100736.25;;;5.93;78.19
64841;BME280;51307;52.162;7.560;2023-12-14T04:37:00;100747.22;;;5.78;78.71
64841;BME280;51307;52.162;7.560;2023-12-14T04:39:26;100749.50;;;5.83;78.97
64841;BME280;51307;52.162;7.560;2023-12-14T04:41:52;100759.72;;;5.87;77.81
64841;BME280;51307;52.162;7.560;2023-12-14T04:44:19;100756.91;;;5.89;77.31
64841;BME280;51307;52.162;7.560;2023-12-14T04:46:45;100756.22;;;6.08;77.33
64841;BME280;51307;52.162;7.560;2023-12-14T04:49:10;100758.50;;;5.70;77.73
64841;BME280;51307;52.162;7.560;2023-12-14T04:51:36;100762.75;;;5.83;77.67
64841;BME280;51307;52.162;7.560;2023-12-14T04:54:01;100762.22;;;5.89;77.29
64841;BME280;51307;52.162;7.560;2023-12-14T04:56:27;100766.56;;;5.90;78.05
64841;BME280;51307;52.162;7.560;2023-12-14T04:58:53;100767.81;;;5.86;77.25
64841;BME280;51307;52.162;7.560;2023-12-14T05:01:18;100767.66;;;5.87;76.80
64841;BME280;51307;52.162;7.560;2023-12-14T05:03:44;100771.06;;;5.89;76.42
64841;BME280;51307;52.162;7.560;2023-12-14T05:06:09;100770.31;;;5.87;76.87
64841;BME280;51307;52.162;7.560;2023-12-14T05:08:35;100772.00;;;5.67;77.39
64841;BME280;51307;52.162;7.560;2023-12-14T05:11:00;100783.56;;;5.78;77.38
64841;BME280;51307;52.162;7.560;2023-12-14T05:13:26;100780.38;;;5.84;77.76
64841;BME280;51307;52.162;7.560;2023-12-14T05:15:51;100786.59;;;5.94;77.93
64841;BME280;51307;52.162;7.560;2023-12-14T05:18:17;100789.25;;;5.94;77.70
64841;BME280;51307;52.162;7.560;2023-12-14T05:20:43;100793.84;;;5.92;77.65
64841;BME280;51307;52.162;7.560;2023-12-14T05:23:11;100788.78;;;6.10;76.30
64841;BME280;51307;52.162;7.560;2023-12-14T05:25:36;100791.56;;;5.87;77.04
64841;BME280;51307;52.162;7.560;2023-12-14T05:28:02;100794.75;;;5.81;77.03
64841;BME280;51307;52.162;7.560;2023-12-14T05:30:27;100799.41;;;5.89;77.50
64841;BME280;51307;52.162;7.560;2023-12-14T05:32:53;100807.69;;;5.96;76.79
64841;BME280;51307;52.162;7.560;2023-12-14T05:35:18;100811.66;;;6.01;76.77
64841;BME280;51307;52.162;7.560;2023-12-14T05:37:44;100813.00;;;5.96;77.33
64841;BME280;51307;52.162;7.560;2023-12-14T05:40:09;100815.09;;;5.92;77.50
64841;BME280;51307;52.162;7.560;2023-12-14T05:42:35;100814.13;;;5.72;78.28
64841;BME280;51307;52.162;7.560;2023-12-14T05:45:01;100812.06;;;5.76;78.65
64841;BME280;51307;52.162;7.560;2023-12-14T05:47:27;100817.28;;;5.87;78.39
64841;BME280;51307;52.162;7.560;2023-12-14T05:49:52;100827.41;;;5.93;77.57
64841;BME280;51307;52.162;7.560;2023-12-14T05:52:18;100827.59;;;5.80;78.89
64841;BME280;51307;52.162;7.560;2023-12-14T05:54:43;100821.19;;;5.83;79.56
64841;BME280;51307;52.162;7.560;2023-12-14T05:57:09;100828.19;;;5.84;79.63
64841;BME280;51307;52.162;7.560;2023-12-14T05:59:38;100829.44;;;5.68;79.97
64841;BME280;51307;52.162;7.560;2023-12-14T06:02:04;100835.03;;;6.07;79.06
64841;BME280;51307;52.162;7.560;2023-12-14T06:04:32;100844.63;;;5.78;79.95
64841;BME280;51307;52.162;7.560;2023-12-14T06:06:57;100851.25;;;6.04;78.13
64841;BME280;51307;52.162;7.560;2023-12-14T06:09:23;100857.06;;;5.98;78.54
64841;BME280;51307;52.162;7.560;2023-12-14T06:11:55;100858.84;;;5.77;79.11
64841;BME280;51307;52.162;7.560;2023-12-14T06:14:20;100867.94;;;5.95;78.53
64841;BME280;51307;52.162;7.560;2023-12-14T06:16:46;100879.50;;;6.05;77.53
64841;BME280;51307;52.162;7.560;2023-12-14T06:19:11;100886.06;;;5.90;77.54
64841;BME280;51307;52.162;7.560;2023-12-14T06:21:37;100893.84;;;5.82;77.20
64841;BME280;51307;52.162;7.560;2023-12-14T06:24:02;100894.50;;;5.95;76.74
64841;BME280;51307;52.162;7.560;2023-12-14T06:26:28;100902.69;;;5.71;77.03
64841;BME280;51307;52.162;7.560;2023-12-14T06:28:54;100914.75;;;5.75;76.55
64841;BME280;51307;52.162;7.560;2023-12-14T06:31:19;100906.97;;;5.95;75.56
64841;BME280;51307;52.162;7.560;2023-12-14T06:33:48;100917.66;;;5.72;76.76
64841;BME280;51307;52.162;7.560;2023-12-14T06:36:16;100930.06;;;5.71;76.03
64841;BME280;51307;52.162;7.560;2023-12-14T06:38:43;100938.97;;;5.82;75.08
64841;BME280;51307;52.162;7.560;2023-12-14T06:41:08;100943.88;;;5.65;75.75
64841;BME280;51307;52.162;7.560;2023-12-14T06:43:34;100947.88;;;5.60;75.83
64841;BME280;51307;52.162;7.560;2023-12-14T06:46:00;100956.41;;;5.63;74.79
64841;BME280;51307;52.162;7.560;2023-12-14T06:48:25;100959.13;;;5.84;72.80
64841;BME280;51307;52.162;7.560;2023-12-14T06:50:51;100964.59;;;5.71;73.24
64841;BME280;51307;52.162;7.560;2023-12-14T06:53:20;100970.88;;;5.59;74.27
64841;BME280;51307;52.162;7.560;2023-12-14T06:55:45;100970.16;;;5.68;73.96
64841;BME280;51307;52.162;7.560;2023-12-14T06:58:11;100971.97;;;5.56;75.37
64841;BME280;51307;52.162;7.560;2023-12-14T07:00:37;100981.75;;;5.56;76.36
64841;BME280;51307;52.162;7.560;2023-12-14T07:03:03;100977.91;;;5.60;75.07
64841;BME280;51307;52.162;7.560;2023-12-14T07:05:28;100989.13;;;5.64;75.89
64841;BME280;51307;52.162;7.560;2023-12-14T07:07:54;100985.84;;;5.60;76.24
64841;BME280;51307;52.162;7.560;2023-12-14T07:10:22;100991.66;;;5.65;75.75
64841;BME280;51307;52.162;7.560;2023-12-14T07:12:47;100994.06;;;5.57;74.62
64841;BME280;51307;52.162;7.560;2023-12-14T07:15:13;101004.66;;;5.68;73.66
64841;BME280;51307;52.162;7.560;2023-12-14T07:17:38;101008.75;;;5.72;73.16
64841;BME280;51307;52.162;7.560;2023-12-14T07:20:04;101014.59;;;5.66;73.95
64841;BME280;51307;52.162;7.560;2023-12-14T07:22:31;101025.91;;;5.68;73.91
64841;BME280;51307;52.162;7.560;2023-12-14T07:24:57;101025.94;;;5.57;74.88
64841;BME280;51307;52.162;7.560;2023-12-14T07:27:22;101029.41;;;5.57;74.26
64841;BME280;51307;52.162;7.560;2023-12-14T07:29:48;101043.38;;;5.82;73.76
64841;BME280;51307;52.162;7.560;2023-12-14T07:32:14;101037.50;;;5.56;75.33
64841;BME280;51307;52.162;7.560;2023-12-14T07:34:39;101043.53;;;5.69;74.53
64841;BME280;51307;52.162;7.560;2023-12-14T07:37:05;101044.88;;;5.64;74.67
64841;BME280;51307;52.162;7.560;2023-12-14T07:39:31;101055.50;;;5.64;75.08
64841;BME280;51307;52.162;7.560;2023-12-14T07:41:57;101058.75;;;5.56;75.13
64841;BME280;51307;52.162;7.560;2023-12-14T07:44:22;101069.81;;;5.50;75.93
64841;BME280;51307;52.162;7.560;2023-12-14T07:46:50;101066.34;;;5.38;75.85
64841;BME280;51307;52.162;7.560;2023-12-14T07:49:16;101077.31;;;5.33;76.35
64841;BME280;51307;52.162;7.560;2023-12-14T07:51:46;101073.94;;;5.31;76.08
64841;BME280;51307;52.162;7.560;2023-12-14T07:54:11;101068.59;;;5.20;76.52
64841;BME280;51307;52.162;7.560;2023-12-14T07:56:37;101068.34;;;5.12;76.62
64841;BME280;51307;52.162;7.560;2023-12-14T07:59:03;101073.09;;;5.42;76.57
64841;BME280;51307;52.162;7.560;2023-12-14T08:01:32;101076.59;;;5.31;76.31
64841;BME280;51307;52.162;7.560;2023-12-14T08:03:57;101083.09;;;5.27;77.03
64841;BME280;51307;52.162;7.560;2023-12-14T08:06:23;101087.66;;;5.25;74.91
64841;BME280;51307;52.162;7.560;2023-12-14T08:08:48;101093.22;;;5.22;75.19
64841;BME280;51307;52.162;7.560;2023-12-14T08:11:14;101099.41;;;5.45;73.82
64841;BME280;51307;52.162;7.560;2023-12-14T08:13:39;101097.56;;;5.34;74.75
64841;BME280;51307;52.162;7.560;2023-12-14T08:16:06;101104.47;;;5.37;73.52
64841;BME280;51307;52.162;7.560;2023-12-14T08:18:32;101110.59;;;5.26;74.60
64841;BME280;51307;52.162;7.560;2023-12-14T08:20:57;101119.06;;;5.31;73.84
64841;BME280;51307;52.162;7.560;2023-12-14T08:23:23;101120.25;;;5.27;74.09
64841;BME280;51307;52.162;7.560;2023-12-14T08:25:55;101127.13;;;5.41;72.90
64841;BME280;51307;52.162;7.560;2023-12-14T08:28:24;101139.44;;;5.42;73.06
64841;BME280;51307;52.162;7.560;2023-12-14T08:30:51;101143.88;;;5.30;73.12
64841;BME280;51307;52.162;7.560;2023-12-14T08:33:16;101144.13;;;5.38;73.98
64841;BME280;51307;52.162;7.560;2023-12-14T08:35:42;101145.34;;;5.34;72.97
64841;BME280;51307;52.162;7.560;2023-12-14T08:38:07;101150.41;;;5.37;73.74
64841;BME280;51307;52.162;7.560;2023-12-14T08:40:33;101157.31;;;5.63;72.60
64841;BME280;51307;52.162;7.560;2023-12-14T08:42:59;101165.16;;;5.53;73.08
64841;BME280;51307;52.162;7.560;2023-12-14T08:45:24;101156.66;;;5.25;73.98
64841;BME280;51307;52.162;7.560;2023-12-14T08:47:50;101161.50;;;5.43;73.06
64841;BME280;51307;52.162;7.560;2023-12-14T08:50:15;101165.81;;;5.32;74.23
64841;BME280;51307;52.162;7.560;2023-12-14T08:52:41;101171.88;;;5.34;74.55
64841;BME280;51307;52.162;7.560;2023-12-14T08:55:08;101178.38;;;5.30;74.79
64841;BME280;51307;52.162;7.560;2023-12-14T08:57:34;101179.47;;;5.39;74.46
64841;BME280;51307;52.162;7.560;2023-12-14T09:00:00;101187.16;;;5.31;73.67
64841;BME280;51307;52.162;7.560;2023-12-14T09:02:26;101191.53;;;5.43;72.94
64841;BME280;51307;52.162;7.560;2023-12-14T09:04:52;101201.69;;;5.38;73.63
64841;BME280;51307;52.162;7.560;2023-12-14T09:07:17;101204.22;;;5.39;73.84
64841;BME280;51307;52.162;7.560;2023-12-14T09:09:43;101214.84;;;5.51;72.57
64841;BME280;51307;52.162;7.560;2023-12-14T09:12:09;101209.97;;;5.33;72.38
64841;BME280;51307;52.162;7.560;2023-12-14T09:14:34;101220.78;;;5.19;73.54
64841;BME280;51307;52.162;7.560;2023-12-14T09:17:00;101219.97;;;5.30;73.64
64841;BME280;51307;52.162;7.560;2023-12-14T09:19:26;101220.38;;;5.12;75.13
64841;BME280;51307;52.162;7.560;2023-12-14T09:21:51;101226.00;;;5.32;73.05
64841;BME280;51307;52.162;7.560;2023-12-14T09:24:17;101233.75;;;5.11;74.16
64841;BME280;51307;52.162;7.560;2023-12-14T09:26:43;101235.78;;;5.31;72.84
64841;BME280;51307;52.162;7.560;2023-12-14T09:29:09;101242.47;;;5.13;74.16
64841;BME280;51307;52.162;7.560;2023-12-14T09:31:34;101238.16;;;5.23;74.03
64841;BME280;51307;52.162;7.560;2023-12-14T09:34:00;101238.34;;;5.33;73.95
64841;BME280;51307;52.162;7.560;2023-12-14T09:36:26;101245.81;;;5.39;73.77
64841;BME280;51307;52.162;7.560;2023-12-14T09:38:54;101248.06;;;5.32;74.58
64841;BME280;51307;52.162;7.560;2023-12-14T09:41:20;101255.56;;;5.27;73.46
64841;BME280;51307;52.162;7.560;2023-12-14T09:43:45;101247.88;;;5.35;73.43
64841;BME280;51307;52.162;7.560;2023-12-14T09:46:11;101250.72;;;5.32;73.40
64841;BME280;51307;52.162;7.560;2023-12-14T09:48:39;101249.78;;;5.33;73.77
64841;BME280;51307;52.162;7.560;2023-12-14T09:51:05;101255.91;;;5.34;74.41
64841;BME280;51307;52.162;7.560;2023-12-14T09:53:31;101255.09;;;5.33;74.29
64841;BME280;51307;52.162;7.560;2023-12-14T09:55:57;101259.94;;;5.39;72.69
64841;BME280;51307;52.162;7.560;2023-12-14T09:58:22;101271.69;;;5.24;73.09
64841;BME280;51307;52.162;7.560;2023-12-14T10:00:48;101263.53;;;5.27;73.81
64841;BME280;51307;52.162;7.560;2023-12-14T10:03:25;101272.31;;;5.28;73.37
64841;BME280;51307;52.162;7.560;2023-12-14T10:05:55;101275.00;;;5.39;72.79
64841;BME280;51307;52.162;7.560;2023-12-14T10:08:22;101281.56;;;5.46;73.16
64841;BME280;51307;52.162;7.560;2023-12-14T10:10:50;101292.72;;;5.27;73.94
64841;BME280;51307;52.162;7.560;2023-12-14T10:13:22;101286.22;;;5.31;72.59
64841;BME280;51307;52.162;7.560;2023-12-14T10:15:48;101292.97;;;5.35;71.59
64841;BME280;51307;52.162;7.560;2023-12-14T10:18:24;101291.25;;;5.59;72.05
64841;BME280;51307;52.162;7.560;2023-12-14T10:20:50;101294.28;;;5.65;70.99
64841;BME280;51307;52.162;7.560;2023-12-14T10:23:16;101292.78;;;5.50;72.58
64841;BME280;51307;52.162;7.560;2023-12-14T10:25:43;101290.47;;;5.45;72.66
64841;BME280;51307;52.162;7.560;2023-12-14T10:28:11;101298.09;;;5.50;73.09
64841;BME280;51307;52.162;7.560;2023-12-14T10:30:38;101295.22;;;5.53;73.12
64841;BME280;51307;52.162;7.560;2023-12-14T10:33:04;101305.19;;;5.14;73.36
64841;BME280;51307;52.162;7.560;2023-12-14T10:35:30;101308.56;;;5.16;74.07
64841;BME280;51307;52.162;7.560;2023-12-14T10:37:55;101305.88;;;5.64;73.12
64841;BME280;51307;52.162;7.560;2023-12-14T10:40:24;101309.47;;;5.63;73.65
64841;BME280;51307;52.162;7.560;2023-12-14T10:42:53;101314.56;;;5.66;73.61
64841;BME280;51307;52.162;7.560;2023-12-14T10:45:29;101320.88;;;5.41;72.93
64841;BME280;51307;52.162;7.560;2023-12-14T10:47:58;101313.41;;;5.46;72.97
64841;BME280;51307;52.162;7.560;2023-12-14T10:50:24;101317.41;;;5.52;74.17
64841;BME280;51307;52.162;7.560;2023-12-14T10:52:50;101320.66;;;5.80;72.37
64841;BME280;51307;52.162;7.560;2023-12-14T10:55:37;101319.91;;;5.78;71.18
64841;BME280;51307;52.162;7.560;2023-12-14T10:58:04;101336.50;;;5.57;72.08
64841;BME280;51307;52.162;7.560;2023-12-14T11:00:31;101340.88;;;5.69;72.00
64841;BME280;51307;52.162;7.560;2023-12-14T11:02:57;101340.38;;;5.64;72.47
64841;BME280;51307;52.162;7.560;2023-12-14T11:05:23;101348.88;;;5.45;71.98
64841;BME280;51307;52.162;7.560;2023-12-14T11:07:56;101351.44;;;5.58;71.58
64841;BME280;51307;52.162;7.560;2023-12-14T11:10:37;101360.03;;;5.62;73.08
64841;BME280;51307;52.162;7.560;2023-12-14T11:13:07;101367.31;;;5.22;72.94
64841;BME280;51307;52.162;7.560;2023-12-14T11:15:38;101365.88;;;5.43;73.62
64841;BME280;51307;52.162;7.560;2023-12-14T11:25:56;101385.63;;;5.38;73.79
64841;BME280;51307;52.162;7.560;2023-12-14T11:28:22;101385.63;;;5.38;73.27
64841;BME280;51307;52.162;7.560;2023-12-14T11:30:48;101393.97;;;5.21;73.64
64841;BME280;51307;52.162;7.560;2023-12-14T11:33:15;101388.38;;;5.13;73.51
64841;BME280;51307;52.162;7.560;2023-12-14T11:35:41;101390.53;;;5.32;73.52
64841;BME280;51307;52.162;7.560;2023-12-14T11:38:08;101384.25;;;5.09;74.02
64841;BME280;51307;52.162;7.560;2023-12-14T11:40:42;101391.34;;;5.08;74.55
64841;BME280;51307;52.162;7.560;2023-12-14T11:43:08;101376.50;;;5.30;73.54
64841;BME280;51307;52.162;7.560;2023-12-14T11:45:36;101379.09;;;5.55;73.30
64841;BME280;51307;52.162;7.560;2023-12-14T11:48:03;101387.38;;;5.51;73.64
64841;BME280;51307;52.162;7.560;2023-12-14T11:50:31;101390.66;;;5.54;73.57
64841;BME280;51307;52.162;7.560;2023-12-14T11:52:57;101394.63;;;5.12;75.35
64841;BME280;51307;52.162;7.560;2023-12-14T11:55:23;101404.28;;;5.13;74.67
64841;BME280;51307;52.162;7.560;2023-12-14T11:57:49;101401.13;;;5.45;73.79
64841;BME280;51307;52.162;7.560;2023-12-14T12:00:15;101393.25;;;5.43;73.22
64841;BME280;51307;52.162;7.560;2023-12-14T12:02:42;101394.81;;;5.70;72.43
64841;BME280;51307;52.162;7.560;2023-12-14T12:05:08;101398.28;;;5.59;73.17
64841;BME280;51307;52.162;7.560;2023-12-14T12:07:33;101393.63;;;5.50;73.33
64841;BME280;51307;52.162;7.560;2023-12-14T12:09:59;101392.97;;;5.59;72.44
64841;BME280;51307;52.162;7.560;2023-12-14T12:12:25;101406.56;;;5.30;74.16
64841;BME280;51307;52.162;7.560;2023-12-14T12:14:51;101408.47;;;5.28;73.99
64841;BME280;51307;52.162;7.560;2023-12-14T12:17:18;101398.50;;;5.56;73.57
64841;BME280;51307;52.162;7.560;2023-12-14T12:19:47;101397.06;;;5.39;74.20
64841;BME280;51307;52.162;7.560;2023-12-14T12:22:12;101399.63;;;5.40;74.09
64841;BME280;51307;52.162;7.560;2023-12-14T12:24:38;101399.94;;;5.49;74.27
64841;BME280;51307;52.162;7.560;2023-12-14T12:27:03;101394.84;;;5.09;74.82
64841;BME280;51307;52.162;7.560;2023-12-14T12:29:30;101399.94;;;5.12;75.66
64841;BME280;51307;52.162;7.560;2023-12-14T12:31:55;101394.16;;;5.55;73.91
64841;BME280;51307;52.162;7.560;2023-12-14T12:34:21;101402.34;;;5.28;74.53
64841;BME280;51307;52.162;7.560;2023-12-14T12:36:47;101407.94;;;5.36;73.83
64841;BME280;51307;52.162;7.560;2023-12-14T12:39:12;101403.69;;;5.33;73.71
64841;BME280;51307;52.162;7.560;2023-12-14T12:41:38;101417.38;;;5.64;73.62
64841;BME280;51307;52.162;7.560;2023-12-14T12:44:04;101412.81;;;5.29;73.54
64841;BME280;51307;52.162;7.560;2023-12-14T12:46:35;101418.16;;;5.53;73.30
64841;BME280;51307;52.162;7.560;2023-12-14T12:49:02;101414.94;;;5.61;73.55
64841;BME280;51307;52.162;7.560;2023-12-14T12:51:29;101422.78;;;5.38;74.41
64841;BME280;51307;52.162;7.560;2023-12-14T12:53:55;101425.22;;;5.66;74.34
64841;BME280;51307;52.162;7.560;2023-12-14T12:56:21;101432.38;;;5.52;73.83
64841;BME280;51307;52.162;7.560;2023-12-14T12:58:47;101437.53;;;5.30;74.23
64841;BME280;51307;52.162;7.560;2023-12-14T13:01:15;101443.06;;;5.39;74.41
64841;BME280;51307;52.162;7.560;2023-12-14T13:03:40;101443.25;;;5.73;73.41
64841;BME280;51307;52.162;7.560;2023-12-14T13:06:06;101446.00;;;5.48;74.79